La Conner, WA (98257)

9:11 PM PDT on October 25, 2014 (GMT -0700)
South Fidalgo Island | Change Station
CLOSE
Current Station
Personal Weather Station
Location: Anacortes, WA
Elevation: 42 ft
Nearby Weather Stations
Active Advisory: Wind Advisory

Elev 42 ft 48.43 °N, 122.59 °W | Updated 20 seconds ago

Overcast
Overcast
51.0 °F
Feels Like 51.0 °F
N
3.0
Wind Variable Wind from WSW
Gusts 3.0 mph

Today
High -- | Low -- °F
--% Chance of Precip.
Yesterday
High -- | Low -- °F
Precip. -- in
7:45 AM 6:02 PM
Waxing Crescent, 6% visible
Pressure 29.44 in
Visibility 10.0 miles
Clouds Mostly Cloudy 1100 ft
Mostly Cloudy 2200 ft
Overcast 4400 ft
Dew Point 50 °F
Humidity 96%
Rainfall 0.30 in
Snow Depth Not available.
UV 0 out of 12
Pollen .40 out of 12
PM2.5 Good
Flu Activity Sporadic
METAR KNUW 260356Z 27025G38KT 10SM BKN011 BKN022 OVC044 13/10 A2943 RMK AO2 PK WND 27038/0348 RAB39E48 SLP970 P0001 T01280100 $

More Conditions Fewer Conditions

Pressure 29.44 in
Visibility 10.0 miles
Clouds Mostly Cloudy 1100 ft
Mostly Cloudy 2200 ft
Overcast 4400 ft
Dew Point 50 °F
Humidity 96%
Rainfall 0.30 in
Snow Depth Not available.
UV 0 out of 12
Pollen .40 out of 12
PM2.5 Good
Flu Activity Sporadic
METAR KNUW 260356Z 27025G38KT 10SM BKN011 BKN022 OVC044 13/10 A2943 RMK AO2 PK WND 27038/0348 RAB39E48 SLP970 P0001 T01280100 $

More Conditions Fewer Conditions

10-Day Weather Forecast

Almanac

Astronomy

Oct. 25, 2014 Rise Set
Actual Time 7:45 AM PDT 6:02 PM PDT
Civil Twilight 7:12 AM PDT 6:34 PM PDT
Nautical Twilight 6:36 AM PDT 7:10 PM PDT
Astronomical Twilight 6:00 AM PDT 7:47 PM PDT
Moon 9:35 AM PDT (10/25) 7:22 PM PDT (10/25)
Length of Visible Light 11h 21m
Length of Day
10h 17m
Tomorrow will be 3m 18s shorter.
Waxing Crescent, 6% of the Moon is Illuminated
Oct 26
Waxing Crescent
Oct 30
First Quarter
Nov 6
Full
Nov 14
Last Quarter
Nov 22
New

Today's Extremes

State Highs State Lows

Community

WunderPhotos

Upload Photos

1,765,107 photos uploaded!

Nearby

Air Quality

  Air Quality AQ Index Pollutant
Yesterday Good
OZONE
Yesterday Good
PM2.5
Current Good
PM2.5
Saturday Good
OZONE
Saturday Good
PM2.5
Sunday Good
OZONE
Sunday Good
PM2.5
Monday Good
OZONE
Monday Good
PM2.5
Tuesday Good
OZONE
Tuesday Good
PM2.5

Snow Depth

Station Depth Elevation
Mf Nooksack 2 in 4980 ft
Dungeness 0 in 4100 ft
Wells Creek 0 in 4200 ft
Alpine Meadows 0 in 3500 ft
Beaver Pass 0 in 3620 ft

Earthquake Activity

City Distance Mag. Time & Date
Birch Bay, Washington 33 miles 2.8 3:02 AM PDT
2014-10-24
Minimum magnitude displayed is 2.5.

Coastal Water Temperatures

Place Temperature
Port Townsend, WA 53.1 °F
Friday Harbor, WA 51.1 °F
Port Angeles, WA 57.0 °F

Nearby Weather Stations